createdAt,value
2023-05-24T00:00:02.571Z,1005.01
2023-05-24T00:00:32.476Z,1005.01
2023-05-24T00:01:04.437Z,1005.21
2023-05-24T00:01:42.134Z,1005.01
2023-05-24T00:02:08.417Z,1005.01
2023-05-24T00:02:35.348Z,1005.11
2023-05-24T00:02:56.423Z,1005.11
2023-05-24T00:03:28.445Z,1005.11
2023-05-24T00:04:01.518Z,1005.11
2023-05-24T00:04:32.383Z,1005.11
2023-05-24T00:05:04.740Z,1005.11
2023-05-24T00:05:37.025Z,1005.11
2023-05-24T00:06:08.358Z,1005.01
2023-05-24T00:06:35.062Z,1005.11
2023-05-24T00:06:56.349Z,1005.11
2023-05-24T00:07:28.361Z,1005.11
2023-05-24T00:08:00.435Z,1005.21
2023-05-24T00:08:32.389Z,1005.21
2023-05-24T00:09:04.403Z,1005.32
2023-05-24T00:09:42.115Z,1005.11
2023-05-24T00:10:08.714Z,1005.11
2023-05-24T00:10:35.069Z,1005.21
2023-05-24T00:10:56.576Z,1005.21
2023-05-24T00:11:28.327Z,1005.21
2023-05-24T00:12:00.416Z,1005.01
2023-05-24T00:12:32.338Z,1005.01
2023-05-24T00:13:04.399Z,1005.11
2023-05-24T00:13:39.548Z,1005.11
2023-05-24T00:14:08.342Z,1005.21
2023-05-24T00:14:35.055Z,1005.21
2023-05-24T00:15:12.935Z,1005.21
2023-05-24T00:15:35.110Z,1005.01
2023-05-24T00:16:00.579Z,1005.01
2023-05-24T00:16:32.457Z,1005.01
2023-05-24T00:17:04.500Z,1005.11
2023-05-24T00:17:36.854Z,1005.11
2023-05-24T00:18:08.491Z,1005.21
2023-05-24T00:18:35.476Z,1005.21
2023-05-24T00:18:56.360Z,1005.21
2023-05-24T00:19:28.316Z,1005.21
2023-05-24T00:20:03.946Z,1005.01
2023-05-24T00:20:32.421Z,1005.01
2023-05-24T00:21:04.441Z,1005.21
2023-05-24T00:21:36.837Z,1005.21
2023-05-24T00:22:08.341Z,1005.01
2023-05-24T00:22:35.076Z,1005.11
2023-05-24T00:23:13.136Z,1005.11
2023-05-24T00:23:35.063Z,1005.01
2023-05-24T00:24:00.404Z,1005.01
2023-05-24T00:24:32.370Z,1005.01
2023-05-24T00:25:04.680Z,1005.21
2023-05-24T00:25:42.153Z,1005.11
2023-05-24T00:26:08.382Z,1005.11
2023-05-24T00:26:35.054Z,1005.11
2023-05-24T00:26:56.340Z,1005.11
2023-05-24T00:27:28.330Z,1005.11
2023-05-24T00:28:00.405Z,1005.01
2023-05-24T00:28:32.333Z,1005.01
2023-05-24T00:29:04.354Z,1005.01
2023-05-24T00:29:37.093Z,1005.01
2023-05-24T00:30:08.992Z,1005.01
2023-05-24T00:30:35.069Z,1005.01
2023-05-24T00:31:13.173Z,1005.01
2023-05-24T00:31:45.300Z,1004.84
2023-05-24T00:32:17.371Z,1004.84
2023-05-24T00:32:40.779Z,1005.11
2023-05-24T00:33:04.494Z,1005.11
2023-05-24T00:33:36.836Z,1005.11
2023-05-24T00:34:09.574Z,1004.91
2023-05-24T00:34:35.063Z,1005.11
2023-05-24T00:34:57.365Z,1005.11
2023-05-24T00:35:28.637Z,1005.11
2023-05-24T00:36:00.399Z,1005.11
2023-05-24T00:36:34.141Z,1005.11
2023-05-24T00:37:04.385Z,1005.01
2023-05-24T00:37:36.988Z,1005.01
2023-05-24T00:38:09.461Z,1004.91
2023-05-24T00:38:35.059Z,1005.01
2023-05-24T00:38:59.092Z,1005.01
2023-05-24T00:39:29.644Z,1005.01
2023-05-24T00:40:02.303Z,1004.91
2023-05-24T00:40:34.192Z,1004.91
2023-05-24T00:41:04.693Z,1004.84
2023-05-24T00:41:42.730Z,1005.01
2023-05-24T00:42:11.583Z,1005.01
2023-05-24T00:42:36.455Z,1004.74
2023-05-24T00:42:58.233Z,1004.74
2023-05-24T00:43:30.300Z,1004.74
2023-05-24T00:44:00.811Z,1005.01
2023-05-24T00:44:32.563Z,1005.01
2023-05-24T00:45:06.519Z,1004.91
2023-05-24T00:45:37.841Z,1004.91
2023-05-24T00:46:09.457Z,1004.91
2023-05-24T00:46:36.760Z,1005.01
2023-05-24T00:46:56.572Z,1005.01
2023-05-24T00:47:28.664Z,1005.01
2023-05-24T00:48:01.766Z,1004.91
2023-05-24T00:48:33.174Z,1004.91
2023-05-24T00:49:04.627Z,1004.74
2023-05-24T00:49:37.178Z,1004.74
2023-05-24T00:50:08.694Z,1005.01
2023-05-24T00:50:36.886Z,1005.01
2023-05-24T00:50:57.871Z,1005.01
2023-05-24T00:51:28.706Z,1005.01
2023-05-24T00:52:01.905Z,1004.84
2023-05-24T00:52:32.377Z,1004.84
2023-05-24T00:53:04.449Z,1004.84
2023-05-24T00:53:37.472Z,1004.84
2023-05-24T00:54:09.567Z,1005.01
2023-05-24T00:54:35.215Z,1004.84
2023-05-24T00:54:58.830Z,1004.84
2023-05-24T00:55:29.521Z,1004.84
2023-05-24T00:56:01.771Z,1005.01
2023-05-24T00:56:32.438Z,1005.01
2023-05-24T00:57:04.641Z,1004.84
2023-05-24T00:57:37.501Z,1004.84
2023-05-24T00:58:13.185Z,1004.91
2023-05-24T00:58:35.132Z,1004.91
2023-05-24T00:58:56.695Z,1004.91
2023-05-24T00:59:29.274Z,1004.91
2023-05-24T01:00:03.385Z,1004.91
2023-05-24T01:00:33.410Z,1004.91
2023-05-24T01:01:04.520Z,1004.91
2023-05-24T01:01:36.904Z,1004.91
2023-05-24T01:02:09.410Z,1004.91
2023-05-24T01:02:35.233Z,1004.91
2023-05-24T01:02:56.495Z,1004.91
2023-05-24T01:03:28.505Z,1004.91
2023-05-24T01:04:00.863Z,1004.84
2023-05-24T01:04:36.509Z,1004.84
2023-05-24T01:05:04.775Z,1004.84
2023-05-24T01:05:37.385Z,1004.84
2023-05-24T01:06:08.402Z,1004.91
2023-05-24T01:06:36.451Z,1004.74
2023-05-24T01:06:56.403Z,1004.74
2023-05-24T01:07:28.571Z,1004.74
2023-05-24T01:08:01.404Z,1004.84
2023-05-24T01:08:33.231Z,1004.84
2023-05-24T01:09:05.146Z,1004.74
2023-05-24T01:09:36.936Z,1004.74
2023-05-24T01:10:08.721Z,1004.84
2023-05-24T01:10:36.469Z,1004.84
2023-05-24T01:10:58.451Z,1004.84
2023-05-24T01:11:30.206Z,1004.84
2023-05-24T01:12:00.494Z,1004.64
2023-05-24T01:12:32.558Z,1004.64
2023-05-24T01:13:04.439Z,1005.01
2023-05-24T01:13:37.389Z,1005.01
2023-05-24T01:14:08.405Z,1005.01
2023-05-24T01:14:38.394Z,1004.91
2023-05-24T01:14:58.202Z,1004.91
2023-05-24T01:15:28.937Z,1004.91
2023-05-24T01:16:03.338Z,1005.11
2023-05-24T01:16:32.465Z,1005.11
2023-05-24T01:17:04.474Z,1005.01
2023-05-24T01:17:39.022Z,1005.01
2023-05-24T01:18:08.458Z,1005.11
2023-05-24T01:18:35.090Z,1004.91
2023-05-24T01:18:57.271Z,1004.91
2023-05-24T01:19:29.364Z,1004.91
2023-05-24T01:20:02.546Z,1004.91
2023-05-24T01:20:35.060Z,1004.91
2023-05-24T01:21:06.870Z,1005.11
2023-05-24T01:21:37.461Z,1005.11
2023-05-24T01:22:08.824Z,1005.01
2023-05-24T01:22:35.121Z,1004.91
2023-05-24T01:22:56.398Z,1004.91
2023-05-24T01:23:28.362Z,1004.91
2023-05-24T01:24:01.600Z,1005.01
2023-05-24T01:24:33.431Z,1005.01
2023-05-24T01:25:05.499Z,1004.84
2023-05-24T01:25:37.350Z,1004.84
2023-05-24T01:26:09.332Z,1005.01
2023-05-24T01:26:37.295Z,1005.01
2023-05-24T01:26:56.424Z,1005.01
2023-05-24T01:27:29.293Z,1005.01
2023-05-24T01:28:01.405Z,1005.01
2023-05-24T01:28:34.204Z,1005.01
2023-05-24T01:29:07.027Z,1004.91
2023-05-24T01:29:37.419Z,1004.91
2023-05-24T01:30:10.433Z,1004.91
2023-05-24T01:30:36.492Z,1004.91
2023-05-24T01:30:58.935Z,1004.91
2023-05-24T01:31:28.392Z,1004.91
2023-05-24T01:32:01.461Z,1005.01
2023-05-24T01:32:32.405Z,1005.01
2023-05-24T01:33:04.464Z,1005.11
2023-05-24T01:33:40.200Z,1005.11
2023-05-24T01:34:08.652Z,1005.01
2023-05-24T01:34:35.058Z,1004.91
2023-05-24T01:34:58.692Z,1004.91
2023-05-24T01:35:30.724Z,1004.91
2023-05-24T01:36:00.751Z,1005.21
2023-05-24T01:36:32.399Z,1005.21
2023-05-24T01:37:04.433Z,1005.11
2023-05-24T01:37:37.295Z,1005.11
2023-05-24T01:38:08.390Z,1004.74
2023-05-24T01:38:35.079Z,1005.11
2023-05-24T01:38:56.345Z,1005.11
2023-05-24T01:39:28.323Z,1005.11
2023-05-24T01:40:02.778Z,1005.01
2023-05-24T01:40:32.336Z,1005.01
2023-05-24T01:41:05.332Z,1004.91
2023-05-24T01:41:36.876Z,1004.91
2023-05-24T01:42:09.250Z,1004.91
2023-05-24T01:42:35.067Z,1004.91
2023-05-24T01:42:56.345Z,1004.91
2023-05-24T01:43:30.419Z,1004.91
2023-05-24T01:44:01.285Z,1004.84
2023-05-24T01:44:32.370Z,1004.84
2023-05-24T01:45:05.772Z,1004.91
2023-05-24T01:45:36.877Z,1004.91
2023-05-24T01:46:10.470Z,1004.91
2023-05-24T01:46:36.238Z,1004.91
2023-05-24T01:46:58.144Z,1004.91
2023-05-24T01:47:28.364Z,1004.91
2023-05-24T01:48:01.620Z,1004.84
2023-05-24T01:48:32.359Z,1004.84
2023-05-24T01:49:04.338Z,1004.84
2023-05-24T01:49:37.249Z,1004.84
2023-05-24T01:50:09.561Z,1004.91
2023-05-24T01:50:35.054Z,1005.01
2023-05-24T01:50:56.614Z,1005.01
2023-05-24T01:51:28.348Z,1005.01
2023-05-24T01:52:01.398Z,1004.84
2023-05-24T01:52:32.389Z,1004.84
2023-05-24T01:53:08.543Z,1004.84
2023-05-24T01:53:36.893Z,1004.84
2023-05-24T01:54:08.344Z,1004.91
2023-05-24T01:54:35.064Z,1004.84
2023-05-24T01:54:56.315Z,1004.84
2023-05-24T01:55:29.616Z,1004.84
2023-05-24T01:56:01.172Z,1004.84
2023-05-24T01:56:33.877Z,1004.84
2023-05-24T01:57:04.390Z,1004.91
2023-05-24T01:57:37.249Z,1004.91
2023-05-24T01:58:08.330Z,1004.91
2023-05-24T01:58:35.087Z,1004.84
2023-05-24T01:58:59.692Z,1004.84
2023-05-24T01:59:30.448Z,1004.84
2023-05-24T02:00:02.953Z,1004.84
2023-05-24T02:00:33.452Z,1004.84
2023-05-24T02:01:04.444Z,1004.91
2023-05-24T02:01:37.408Z,1004.91
2023-05-24T02:02:09.429Z,1004.91
2023-05-24T02:02:35.198Z,1004.91
2023-05-24T02:02:56.551Z,1004.91
2023-05-24T02:03:28.364Z,1004.91
2023-05-24T02:04:00.386Z,1004.91
2023-05-24T02:04:32.353Z,1004.91
2023-05-24T02:05:04.728Z,1004.91
2023-05-24T02:05:37.964Z,1004.91
2023-05-24T02:06:10.383Z,1004.84
2023-05-24T02:06:35.063Z,1004.84
2023-05-24T02:06:56.777Z,1004.84
2023-05-24T02:07:28.398Z,1004.84
2023-05-24T02:08:00.433Z,1004.84
2023-05-24T02:08:33.247Z,1004.84
2023-05-24T02:09:04.387Z,1004.91
2023-05-24T02:09:37.230Z,1004.91
2023-05-24T02:10:08.716Z,1004.91
2023-05-24T02:10:36.780Z,1005.11
2023-05-24T02:11:12.456Z,1005.11
2023-05-24T02:11:37.272Z,1004.84
2023-05-24T02:12:01.876Z,1004.84
2023-05-24T02:12:32.309Z,1004.84
2023-05-24T02:13:05.130Z,1005.01
2023-05-24T02:13:42.080Z,1004.91
2023-05-24T02:14:08.327Z,1004.91
2023-05-24T02:14:35.038Z,1004.91
2023-05-24T02:15:13.513Z,1004.91
2023-05-24T02:15:35.668Z,1005.01
2023-05-24T02:16:00.564Z,1005.01
2023-05-24T02:16:32.788Z,1005.01
2023-05-24T02:17:04.383Z,1005.01
2023-05-24T02:17:36.928Z,1005.01
2023-05-24T02:18:08.455Z,1004.91
2023-05-24T02:18:35.168Z,1005.11
2023-05-24T02:19:15.278Z,1005.11
2023-05-24T02:19:35.066Z,1004.91
2023-05-24T02:20:03.359Z,1004.91
2023-05-24T02:20:32.462Z,1004.91
2023-05-24T02:21:04.354Z,1004.91
2023-05-24T02:21:39.078Z,1004.91
2023-05-24T02:22:09.220Z,1005.11
2023-05-24T02:22:35.167Z,1004.91
2023-05-24T02:22:56.346Z,1004.91
2023-05-24T02:23:28.347Z,1004.91
2023-05-24T02:24:00.421Z,1005.11
2023-05-24T02:24:32.775Z,1005.11
2023-05-24T02:25:04.667Z,1005.11
2023-05-24T02:25:37.347Z,1005.11
2023-05-24T02:26:08.373Z,1005.01
2023-05-24T02:26:35.054Z,1005.01
2023-05-24T02:27:13.193Z,1005.01
2023-05-24T02:27:35.885Z,1005.01
2023-05-24T02:28:03.356Z,1005.01
2023-05-24T02:28:32.413Z,1005.01
2023-05-24T02:29:04.364Z,1005.21
2023-05-24T02:29:37.970Z,1005.21
2023-05-24T02:30:08.976Z,1005.01
2023-05-24T02:30:35.090Z,1005.11
2023-05-24T02:30:57.907Z,1005.11
2023-05-24T02:31:28.469Z,1005.11
2023-05-24T02:32:00.813Z,1005.01
2023-05-24T02:32:32.403Z,1005.01
2023-05-24T02:33:04.418Z,1004.84
2023-05-24T02:33:38.190Z,1004.84
2023-05-24T02:34:08.338Z,1005.01
2023-05-24T02:34:35.054Z,1005.01
2023-05-24T02:35:12.767Z,1005.01
2023-05-24T02:35:36.570Z,1005.01
2023-05-24T02:36:00.422Z,1005.01
2023-05-24T02:36:32.346Z,1005.01
2023-05-24T02:37:04.368Z,1004.84
2023-05-24T02:37:44.237Z,1005.11
2023-05-24T02:38:08.358Z,1005.11
2023-05-24T02:38:35.243Z,1005.01
2023-05-24T02:38:56.353Z,1005.01
2023-05-24T02:39:28.378Z,1005.01
2023-05-24T02:40:07.733Z,1005.21
2023-05-24T02:40:34.153Z,1005.21
2023-05-24T02:41:06.728Z,1004.91
2023-05-24T02:41:39.122Z,1004.91
2023-05-24T02:42:08.394Z,1005.21
2023-05-24T02:42:35.056Z,1005.11
2023-05-24T02:43:12.420Z,1005.11
2023-05-24T02:43:35.089Z,1005.01
2023-05-24T02:44:04.557Z,1005.01
2023-05-24T02:44:32.367Z,1005.01
2023-05-24T02:45:04.932Z,1005.21
2023-05-24T02:45:36.954Z,1005.21
2023-05-24T02:46:08.811Z,1005.11
2023-05-24T02:46:35.118Z,1005.11
2023-05-24T02:47:28.874Z,1005.11
2023-05-24T02:48:01.359Z,1005.21
2023-05-24T02:48:33.324Z,1005.21
2023-05-24T02:49:04.338Z,1004.91
2023-05-24T02:49:37.369Z,1004.91
2023-05-24T02:50:09.669Z,1005.11
2023-05-24T02:50:36.571Z,1004.91
2023-05-24T02:51:12.994Z,1004.91
2023-05-24T02:51:37.372Z,1004.91
2023-05-24T02:52:00.380Z,1004.91
2023-05-24T02:52:33.378Z,1004.91
2023-05-24T02:53:04.326Z,1005.21
2023-05-24T02:53:38.020Z,1005.21
2023-05-24T02:54:08.333Z,1005.11
2023-05-24T02:54:35.059Z,1005.01
2023-05-24T02:54:56.352Z,1005.01
2023-05-24T02:55:29.005Z,1005.01
2023-05-24T02:56:00.382Z,1004.91
2023-05-24T02:56:32.354Z,1004.91
2023-05-24T02:57:05.278Z,1005.21
2023-05-24T02:57:43.758Z,1004.91
2023-05-24T02:58:08.391Z,1004.91
2023-05-24T02:58:36.639Z,1004.91
2023-05-24T02:59:14.277Z,1004.91
2023-05-24T02:59:36.094Z,1004.84
2023-05-24T03:00:02.890Z,1004.84
2023-05-24T03:00:32.333Z,1004.84
2023-05-24T03:01:06.835Z,1005.11
2023-05-24T03:01:42.112Z,1005.11
2023-05-24T03:02:08.477Z,1005.11
2023-05-24T03:02:37.335Z,1005.01
2023-05-24T03:02:58.009Z,1005.01
2023-05-24T03:03:30.366Z,1005.01
2023-05-24T03:04:00.450Z,1005.11
2023-05-24T03:04:34.312Z,1005.11
2023-05-24T03:05:04.654Z,1005.01
2023-05-24T03:05:36.847Z,1005.01
2023-05-24T03:06:09.977Z,1005.21
2023-05-24T03:06:35.076Z,1004.91
2023-05-24T03:07:12.401Z,1004.91
2023-05-24T03:07:35.030Z,1005.01
2023-05-24T03:08:01.305Z,1005.01
2023-05-24T03:08:34.657Z,1005.01
2023-05-24T03:09:05.228Z,1005.01
2023-05-24T03:09:43.150Z,1005.11
2023-05-24T03:10:08.659Z,1005.11
2023-05-24T03:10:36.088Z,1005.01
2023-05-24T03:10:56.604Z,1005.01
2023-05-24T03:11:28.373Z,1005.01
2023-05-24T03:12:03.270Z,1005.11
2023-05-24T03:12:33.228Z,1005.11
2023-05-24T03:13:06.739Z,1005.01
2023-05-24T03:13:36.889Z,1005.01
2023-05-24T03:14:08.448Z,1005.21
2023-05-24T03:14:35.822Z,1005.11
2023-05-24T03:15:14.733Z,1005.11
2023-05-24T03:15:37.550Z,1005.01
2023-05-24T03:16:00.505Z,1005.01
2023-05-24T03:16:32.380Z,1005.01
2023-05-24T03:17:04.339Z,1004.91
2023-05-24T03:17:37.290Z,1004.91
2023-05-24T03:18:11.180Z,1005.01
2023-05-24T03:18:35.073Z,1005.11
2023-05-24T03:19:13.253Z,1005.11
2023-05-24T03:19:45.497Z,1004.91
2023-05-24T03:20:42.958Z,1005.01
2023-05-24T03:21:04.363Z,1005.01
2023-05-24T03:21:37.228Z,1005.01
2023-05-24T03:22:10.766Z,1004.91
2023-05-24T03:22:35.083Z,1005.01
2023-05-24T03:23:12.322Z,1005.01
2023-05-24T03:23:37.103Z,1005.21
2023-05-24T03:24:00.376Z,1005.21
2023-05-24T03:24:32.317Z,1005.21
2023-05-24T03:25:09.400Z,1004.91
2023-05-24T03:25:42.038Z,1005.32
2023-05-24T03:26:08.331Z,1005.32
2023-05-24T03:26:35.430Z,1004.84
2023-05-24T03:26:58.374Z,1004.84
2023-05-24T03:27:28.451Z,1004.84
2023-05-24T03:28:00.831Z,1004.74
2023-05-24T03:28:33.925Z,1004.74
2023-05-24T03:29:04.329Z,1004.84
2023-05-24T03:29:42.056Z,1005.01
2023-05-24T03:30:09.032Z,1005.01
2023-05-24T03:30:35.863Z,1004.91
2023-05-24T03:30:57.912Z,1004.91
2023-05-24T03:31:34.658Z,1004.91
2023-05-24T03:32:01.856Z,1004.84
2023-05-24T03:32:32.480Z,1004.84
2023-05-24T03:33:04.436Z,1005.01
2023-05-24T03:33:43.160Z,1005.01
2023-05-24T03:34:08.462Z,1005.01
2023-05-24T03:34:37.458Z,1004.91
2023-05-24T03:34:57.069Z,1004.91
2023-05-24T03:35:30.670Z,1004.91
2023-05-24T03:36:00.510Z,1005.11
2023-05-24T03:36:32.497Z,1005.11
2023-05-24T03:37:05.424Z,1004.91
2023-05-24T03:37:37.036Z,1004.91
2023-05-24T03:38:08.959Z,1005.01
2023-05-24T03:38:39.404Z,1005.01
2023-05-24T03:39:12.538Z,1005.01
2023-05-24T03:39:35.173Z,1005.11
2023-05-24T03:40:03.031Z,1005.11
2023-05-24T03:40:33.900Z,1005.11
2023-05-24T03:41:04.463Z,1005.01
2023-05-24T03:41:43.082Z,1005.01
2023-05-24T03:42:08.421Z,1005.01
2023-05-24T03:42:37.575Z,1005.01
2023-05-24T03:42:56.446Z,1005.01
2023-05-24T03:43:28.487Z,1005.01
2023-05-24T03:44:01.326Z,1004.91
2023-05-24T03:44:32.973Z,1004.91
2023-05-24T03:45:04.985Z,1005.11
2023-05-24T03:45:39.748Z,1005.11
2023-05-24T03:46:08.731Z,1005.11
2023-05-24T03:46:37.677Z,1004.91
2023-05-24T03:47:15.257Z,1004.91
2023-05-24T03:47:35.749Z,1005.11
2023-05-24T03:48:00.539Z,1005.11
2023-05-24T03:48:32.445Z,1005.11
2023-05-24T03:49:04.522Z,1005.21
2023-05-24T03:49:44.298Z,1005.01
2023-05-24T03:50:09.677Z,1005.01
2023-05-24T03:50:36.534Z,1005.32
2023-05-24T03:51:13.476Z,1005.32
2023-05-24T03:51:35.952Z,1005.11
2023-05-24T03:52:00.550Z,1005.11
2023-05-24T03:52:32.756Z,1005.11
2023-05-24T03:53:05.539Z,1004.91
2023-05-24T03:53:36.926Z,1004.91
2023-05-24T03:54:13.323Z,1005.01
2023-05-24T03:54:35.213Z,1005.01
2023-05-24T03:55:13.860Z,1005.01
2023-05-24T03:55:36.235Z,1005.21
2023-05-24T03:56:00.492Z,1005.21
2023-05-24T03:56:33.822Z,1005.21
2023-05-24T03:57:04.445Z,1005.11
2023-05-24T03:57:47.669Z,1005.21
2023-05-24T03:58:08.396Z,1005.21
2023-05-24T03:58:35.171Z,1005.01
2023-05-24T03:58:56.454Z,1005.01
2023-05-24T03:59:29.439Z,1005.01
2023-05-24T04:00:03.362Z,1005.11
2023-05-24T04:00:32.545Z,1005.11
2023-05-24T04:01:04.524Z,1005.21
2023-05-24T04:01:42.159Z,1005.21
2023-05-24T04:02:08.208Z,1005.21
2023-05-24T04:02:35.140Z,1005.11
2023-05-24T04:02:56.130Z,1005.11
2023-05-24T04:03:28.955Z,1005.11
2023-05-24T04:04:00.888Z,1005.11
2023-05-24T04:04:32.060Z,1005.11
2023-05-24T04:05:05.001Z,1005.01
2023-05-24T04:05:41.564Z,1005.21
2023-05-24T04:06:07.914Z,1005.21
2023-05-24T04:06:37.788Z,1005.11
2023-05-24T04:06:57.702Z,1005.11
2023-05-24T04:07:30.965Z,1005.11
2023-05-24T04:08:01.113Z,1005.11
2023-05-24T04:08:32.542Z,1005.11
2023-05-24T04:09:04.525Z,1005.21
2023-05-24T04:09:37.177Z,1005.21
2023-05-24T04:10:09.614Z,1005.32
2023-05-24T04:10:39.202Z,1005.01
2023-05-24T04:11:12.489Z,1005.01
2023-05-24T04:11:35.309Z,1005.01
2023-05-24T04:12:01.610Z,1005.01
2023-05-24T04:12:32.451Z,1005.01
2023-05-24T04:13:04.460Z,1005.01
2023-05-24T04:13:36.785Z,1005.01
2023-05-24T04:14:08.419Z,1005.01
2023-05-24T04:14:35.182Z,1004.91
2023-05-24T04:14:56.432Z,1004.91
2023-05-24T04:15:32.252Z,1004.91
2023-05-24T04:16:03.325Z,1005.01
2023-05-24T04:16:32.592Z,1005.01
2023-05-24T04:17:08.685Z,1005.11
2023-05-24T04:17:36.921Z,1005.11
2023-05-24T04:18:08.640Z,1005.21
2023-05-24T04:18:35.222Z,1005.01
2023-05-24T04:18:56.476Z,1005.01
2023-05-24T04:19:30.981Z,1005.01
2023-05-24T04:20:02.811Z,1005.11
2023-05-24T04:20:32.697Z,1005.11
2023-05-24T04:21:04.423Z,1005.11
2023-05-24T04:21:42.154Z,1005.01
2023-05-24T04:22:08.438Z,1005.01
2023-05-24T04:22:35.500Z,1005.21
2023-05-24T04:22:56.535Z,1005.21
2023-05-24T04:23:28.672Z,1005.21
2023-05-24T04:24:02.586Z,1005.01
2023-05-24T04:24:33.499Z,1005.01
2023-05-24T04:25:04.773Z,1005.32
2023-05-24T04:25:37.088Z,1005.32
2023-05-24T04:26:09.262Z,1005.32
2023-05-24T04:26:35.948Z,1005.11
2023-05-24T04:26:56.458Z,1005.11
2023-05-24T04:27:29.379Z,1005.11
2023-05-24T04:28:01.520Z,1005.01
2023-05-24T04:28:32.393Z,1005.01
2023-05-24T04:29:05.378Z,1004.91
2023-05-24T04:29:36.457Z,1004.91
2023-05-24T04:30:11.863Z,1005.21
2023-05-24T04:30:35.148Z,1005.01
2023-05-24T04:30:56.778Z,1005.01
2023-05-24T04:31:28.450Z,1005.01
2023-05-24T04:32:01.571Z,1005.21
2023-05-24T04:32:33.513Z,1005.21
2023-05-24T04:33:04.555Z,1005.11
2023-05-24T04:33:36.512Z,1005.11
2023-05-24T04:34:08.445Z,1005.01
2023-05-24T04:34:35.186Z,1005.42
2023-05-24T04:35:13.576Z,1005.42
2023-05-24T04:35:35.176Z,1005.01
2023-05-24T04:36:00.951Z,1005.01
2023-05-24T04:36:32.891Z,1005.01
2023-05-24T04:37:05.364Z,1005.21
2023-05-24T04:37:42.148Z,1005.21
2023-05-24T04:38:08.439Z,1005.21
2023-05-24T04:38:35.457Z,1005.11
2023-05-24T04:38:56.426Z,1005.11
2023-05-24T04:39:28.453Z,1005.11
2023-05-24T04:40:03.281Z,1005.32
2023-05-24T04:40:32.477Z,1005.32
2023-05-24T04:41:05.426Z,1005.21
2023-05-24T04:41:37.251Z,1005.21
2023-05-24T04:42:08.865Z,1005.21
2023-05-24T04:42:35.489Z,1005.11
2023-05-24T04:43:12.491Z,1005.11
2023-05-24T04:43:36.083Z,1005.11
2023-05-24T04:44:01.468Z,1005.11
2023-05-24T04:44:32.462Z,1005.11
2023-05-24T04:45:06.183Z,1005.11
2023-05-24T04:45:43.015Z,1005.11
2023-05-24T04:46:09.341Z,1005.11
2023-05-24T04:46:37.364Z,1005.01
2023-05-24T04:46:56.506Z,1005.01
2023-05-24T04:47:31.002Z,1005.01
2023-05-24T04:48:01.545Z,1005.32
2023-05-24T04:48:33.434Z,1005.32
2023-05-24T04:49:05.212Z,1005.42
2023-05-24T04:49:37.282Z,1005.42
2023-05-24T04:50:08.786Z,1005.32
2023-05-24T04:50:35.188Z,1005.21
2023-05-24T04:51:13.906Z,1005.21
2023-05-24T04:51:35.160Z,1005.21
2023-05-24T04:52:00.920Z,1005.21
2023-05-24T04:52:32.467Z,1005.21
2023-05-24T04:53:05.320Z,1005.32
2023-05-24T04:53:36.439Z,1005.32
2023-05-24T04:54:11.843Z,1005.21
2023-05-24T04:54:35.146Z,1005.21
2023-05-24T04:54:57.230Z,1005.21
2023-05-24T04:55:29.756Z,1005.21
2023-05-24T04:56:01.404Z,1005.21
2023-05-24T04:56:32.478Z,1005.21
2023-05-24T04:57:06.349Z,1005.42
2023-05-24T04:57:37.029Z,1005.42
2023-05-24T04:58:10.269Z,1005.21
2023-05-24T04:58:36.244Z,1005.32
2023-05-24T04:59:12.382Z,1005.32
2023-05-24T04:59:35.129Z,1005.32
2023-05-24T05:00:03.071Z,1005.32
2023-05-24T05:00:32.481Z,1005.32
2023-05-24T05:01:05.416Z,1005.11
2023-05-24T05:01:36.556Z,1005.11
2023-05-24T05:02:08.590Z,1005.42
2023-05-24T05:02:35.341Z,1005.21
2023-05-24T05:02:58.412Z,1005.21
2023-05-24T05:03:28.579Z,1005.21
2023-05-24T05:04:01.619Z,1005.21
2023-05-24T05:04:34.247Z,1005.21
2023-05-24T05:05:04.774Z,1005.42
2023-05-24T05:05:36.786Z,1005.42
2023-05-24T05:06:08.443Z,1005.32
2023-05-24T05:06:35.153Z,1005.32
2023-05-24T05:06:59.116Z,1005.32
2023-05-24T05:07:29.338Z,1005.32
2023-05-24T05:08:02.311Z,1005.32
2023-05-24T05:08:32.455Z,1005.32
2023-05-24T05:09:04.461Z,1005.32
2023-05-24T05:09:36.454Z,1005.32
2023-05-24T05:10:08.709Z,1005.32
2023-05-24T05:10:36.131Z,1005.42
2023-05-24T05:10:56.685Z,1005.42
2023-05-24T05:11:28.517Z,1005.42
2023-05-24T05:12:00.913Z,1005.42
2023-05-24T05:12:34.271Z,1005.42
2023-05-24T05:13:05.533Z,1005.52
2023-05-24T05:13:37.866Z,1005.52
2023-05-24T05:14:09.310Z,1005.32
2023-05-24T05:14:36.954Z,1005.42
2023-05-24T05:14:56.432Z,1005.42
2023-05-24T05:15:28.940Z,1005.42
2023-05-24T05:16:01.400Z,1005.32
2023-05-24T05:16:34.322Z,1005.32
2023-05-24T05:17:04.709Z,1005.32
2023-05-24T05:17:36.486Z,1005.32
2023-05-24T05:18:09.459Z,1005.42
2023-05-24T05:18:36.052Z,1005.62
2023-05-24T05:18:57.209Z,1005.62
2023-05-24T05:19:28.955Z,1005.62
2023-05-24T05:20:03.544Z,1005.52
2023-05-24T05:20:32.552Z,1005.52
2023-05-24T05:21:04.472Z,1005.32
2023-05-24T05:21:38.297Z,1005.32
2023-05-24T05:22:08.444Z,1005.52
2023-05-24T05:22:35.137Z,1005.52
2023-05-24T05:23:16.203Z,1005.52
2023-05-24T05:23:35.592Z,1005.72
2023-05-24T05:24:01.376Z,1005.72
2023-05-24T05:24:32.508Z,1005.72
2023-05-24T05:25:06.374Z,1005.52
2023-05-24T05:25:36.424Z,1005.52
2023-05-24T05:26:09.318Z,1005.62
2023-05-24T05:26:35.759Z,1005.52
2023-05-24T05:26:56.453Z,1005.52
2023-05-24T05:27:29.499Z,1005.52
2023-05-24T05:28:00.889Z,1005.62
2023-05-24T05:28:32.923Z,1005.62
2023-05-24T05:29:05.348Z,1005.62
2023-05-24T05:29:37.361Z,1005.62
2023-05-24T05:30:09.027Z,1005.52
2023-05-24T05:30:35.127Z,1005.62
2023-05-24T05:31:12.843Z,1005.62
2023-05-24T05:31:35.145Z,1005.52
2023-05-24T05:32:01.008Z,1005.52
2023-05-24T05:32:32.614Z,1005.52
2023-05-24T05:33:05.489Z,1005.72
2023-05-24T05:33:37.673Z,1005.72
2023-05-24T05:34:09.356Z,1005.62
2023-05-24T05:34:36.865Z,1005.52
2023-05-24T05:34:56.420Z,1005.52
2023-05-24T05:35:28.652Z,1005.52
2023-05-24T05:36:01.568Z,1005.42
2023-05-24T05:36:34.346Z,1005.42
2023-05-24T05:37:04.467Z,1005.42
2023-05-24T05:37:42.158Z,1005.62
2023-05-24T05:38:08.424Z,1005.62
2023-05-24T05:38:36.009Z,1005.52
2023-05-24T05:38:56.428Z,1005.52
2023-05-24T05:39:28.829Z,1005.52
2023-05-24T05:40:01.291Z,1005.62
2023-05-24T05:40:32.941Z,1005.62
2023-05-24T05:41:04.448Z,1005.62
2023-05-24T05:41:44.632Z,1005.52
2023-05-24T05:42:08.528Z,1005.52
2023-05-24T05:42:35.310Z,1005.42
2023-05-24T05:42:56.579Z,1005.42
2023-05-24T05:43:28.562Z,1005.42
2023-05-24T05:44:01.152Z,1005.52
2023-05-24T05:44:32.601Z,1005.52
2023-05-24T05:45:05.306Z,1005.52
2023-05-24T05:45:37.184Z,1005.52
2023-05-24T05:46:08.804Z,1005.42
2023-05-24T05:46:36.122Z,1005.62
2023-05-24T05:46:56.533Z,1005.62
2023-05-24T05:47:28.558Z,1005.62
2023-05-24T05:48:01.052Z,1005.72
2023-05-24T05:48:32.699Z,1005.72
2023-05-24T05:49:04.552Z,1005.72
2023-05-24T05:49:36.568Z,1005.72
2023-05-24T05:50:08.806Z,1005.62
2023-05-24T05:50:35.257Z,1005.42
2023-05-24T05:50:56.786Z,1005.42
2023-05-24T05:51:28.608Z,1005.42
2023-05-24T05:52:01.753Z,1005.52
2023-05-24T05:52:32.652Z,1005.52
2023-05-24T05:53:04.561Z,1005.62
2023-05-24T05:53:36.551Z,1005.62
2023-05-24T05:54:08.528Z,1005.72
2023-05-24T05:54:35.266Z,1005.62
2023-05-24T05:54:56.525Z,1005.62
2023-05-24T05:55:28.845Z,1005.62
2023-05-24T05:56:00.954Z,1005.52
2023-05-24T05:56:32.581Z,1005.52
2023-05-24T05:57:04.490Z,1005.42
2023-05-24T05:57:37.119Z,1005.42
2023-05-24T05:58:08.507Z,1005.62
2023-05-24T05:58:35.572Z,1005.72
2023-05-24T05:58:56.499Z,1005.72
2023-05-24T05:59:28.542Z,1005.72
2023-05-24T06:00:03.225Z,1005.62
2023-05-24T06:00:32.598Z,1005.62
2023-05-24T06:01:04.539Z,1005.62
2023-05-24T06:01:37.114Z,1005.62
2023-05-24T06:02:08.575Z,1005.62
2023-05-24T06:02:35.677Z,1005.52
2023-05-24T06:02:56.592Z,1005.52
2023-05-24T06:03:28.764Z,1005.52